Time;durP1;ratioP1;P1;durP2;ratioP2;P2;SDS_P1;SDS_P2;PMS_P1;PMS_P2;Temp;Humidity;BMP_temperature;BMP_pressure;BME280_temperature;BME280_humidity;BME280_pressure;Samples;Min_cycle;Max_cycle;Signal;HPM_P1;HPM_P2
2024/02/17 00:02:27;;;;;;;;;;;;;;;12.40;82.61;98504.72;5080724;28;19930;-78
2024/02/17 00:05:15;;;;;;;;;;;;;;;12.40;82.58;98502.00;5080161;28;20340;-77
2024/02/17 00:08:05;;;;;;;;;;;;;;;12.45;82.32;98499.16;5073950;28;19971;-78
2024/02/17 00:10:53;;;;;;;;;;;;;;;12.39;82.49;98505.84;5061737;28;19924;-78
2024/02/17 00:13:42;;;;;;;;;;;;;;;12.38;82.65;98508.91;5073183;28;20153;-77
2024/02/17 00:16:30;;;;;;;;;;;;;;;12.37;83.08;98497.19;5073107;28;20383;-78
2024/02/17 00:19:18;;;;;;;;;;;;;;;12.36;82.86;98506.50;5089540;28;19955;-77
2024/02/17 00:22:06;;;;;;;;;;;;;;;12.32;83.09;98502.75;5086225;28;20010;-78
2024/02/17 00:24:56;;;;;;;;;;;;;;;12.39;82.81;98508.56;5076069;28;20012;-78
2024/02/17 00:27:44;;;;;;;;;;;;;;;12.30;83.37;98508.53;5064973;28;20394;-78
2024/02/17 00:30:33;;;;;;;;;;;;;;;12.35;83.14;98520.41;5061462;28;19924;-78
2024/02/17 00:33:21;;;;;;;;;;;;;;;12.35;83.23;98523.13;5066546;28;19924;-78
2024/02/17 00:36:09;;;;;;;;;;;;;;;12.26;83.36;98514.91;5080862;28;20015;-78
2024/02/17 00:38:57;;;;;;;;;;;;;;;12.25;83.66;98518.72;5072964;28;19931;-78
2024/02/17 00:41:47;;;;;;;;;;;;;;;12.26;83.85;98517.63;5066409;28;20431;-78
2024/02/17 00:44:35;;;;;;;;;;;;;;;12.22;83.93;98525.59;5072960;28;19932;-78
2024/02/17 00:47:23;;;;;;;;;;;;;;;12.30;83.36;98527.59;5062920;28;19924;-78
2024/02/17 00:50:11;;;;;;;;;;;;;;;12.31;83.60;98528.41;5089607;28;19925;-78
2024/02/17 00:52:59;;;;;;;;;;;;;;;12.22;84.24;98527.50;5066956;28;19928;-77
2024/02/17 00:55:47;;;;;;;;;;;;;;;12.19;84.54;98530.84;5094795;28;20025;-78
2024/02/17 00:58:37;;;;;;;;;;;;;;;12.15;84.79;98525.22;5079380;28;19947;-78
2024/02/17 01:01:26;;;;;;;;;;;;;;;12.17;84.89;98522.19;5069080;28;19931;-78
2024/02/17 01:04:20;;;;;;;;;;;;;;;12.15;84.91;98522.50;5074306;28;19929;-78
2024/02/17 01:07:08;;;;;;;;;;;;;;;12.16;85.26;98528.75;5056065;28;19928;-78
2024/02/17 01:09:56;;;;;;;;;;;;;;;12.12;84.92;98530.47;5076087;28;20273;-78
2024/02/17 01:12:45;;;;;;;;;;;;;;;12.14;85.11;98534.47;5094716;28;19924;-78
2024/02/17 01:15:35;;;;;;;;;;;;;;;12.11;85.26;98537.03;5068589;28;19932;-77
2024/02/17 01:18:23;;;;;;;;;;;;;;;12.07;85.49;98529.44;5086233;28;19924;-78
2024/02/17 01:21:12;;;;;;;;;;;;;;;12.18;85.08;98529.22;5059849;28;20380;-77
2024/02/17 01:24:01;;;;;;;;;;;;;;;12.17;84.82;98539.31;5069006;28;20392;-77
2024/02/17 01:26:49;;;;;;;;;;;;;;;12.08;85.68;98541.16;5077681;28;19929;-78
2024/02/17 01:29:37;;;;;;;;;;;;;;;12.03;85.93;98549.44;5072438;28;20376;-78
2024/02/17 01:32:26;;;;;;;;;;;;;;;12.11;85.24;98548.72;5067455;28;20054;-78
2024/02/17 01:35:15;;;;;;;;;;;;;;;12.10;85.36;98554.47;5067011;28;19924;-77
2024/02/17 01:38:03;;;;;;;;;;;;;;;12.03;85.75;98546.69;5085073;28;19959;-78
2024/02/17 01:40:51;;;;;;;;;;;;;;;12.03;85.87;98552.94;5078039;28;20039;-77
2024/02/17 01:43:39;;;;;;;;;;;;;;;11.93;86.37;98550.47;5067043;28;19933;-78
2024/02/17 01:46:27;;;;;;;;;;;;;;;12.01;86.10;98546.22;5066966;28;20384;-78
2024/02/17 01:49:17;;;;;;;;;;;;;;;12.03;85.78;98546.69;5065218;28;19928;-77
2024/02/17 01:52:06;;;;;;;;;;;;;;;12.02;85.75;98554.06;5063798;28;19925;-78
2024/02/17 01:54:54;;;;;;;;;;;;;;;12.00;85.80;98553.56;5054637;28;19932;-77
2024/02/17 01:57:42;;;;;;;;;;;;;;;12.01;85.79;98549.75;5061551;28;19924;-78
2024/02/17 02:00:33;;;;;;;;;;;;;;;12.05;85.65;98561.63;5058992;28;20011;-78
2024/02/17 02:03:21;;;;;;;;;;;;;;;12.06;85.52;98559.72;5058390;28;19965;-78
2024/02/17 02:06:12;;;;;;;;;;;;;;;12.03;85.63;98565.75;5065574;28;19975;-78
2024/02/17 02:09:00;;;;;;;;;;;;;;;12.06;85.42;98568.69;5067663;28;19935;-78
2024/02/17 02:11:48;;;;;;;;;;;;;;;12.06;85.49;98563.25;5063290;28;19990;-77
2024/02/17 02:14:36;;;;;;;;;;;;;;;12.03;85.64;98563.84;5068434;28;19932;-78
2024/02/17 02:17:24;;;;;;;;;;;;;;;12.00;85.82;98567.19;5062461;28;20388;-77
2024/02/17 02:20:16;;;;;;;;;;;;;;;11.89;86.78;98571.25;5066650;28;20379;-78
2024/02/17 02:23:06;;;;;;;;;;;;;;;11.92;86.81;98573.34;5066939;28;19924;-78
2024/02/17 02:26:00;;;;;;;;;;;;;;;11.96;86.42;98574.34;5063269;28;19932;-78
2024/02/17 02:28:48;;;;;;;;;;;;;;;11.96;86.59;98574.34;5061552;28;19924;-78
2024/02/17 02:31:36;;;;;;;;;;;;;;;11.99;86.50;98575.69;5067013;28;19932;-78
2024/02/17 02:34:24;;;;;;;;;;;;;;;11.97;86.58;98572.44;5062514;28;19925;-78
2024/02/17 02:37:12;;;;;;;;;;;;;;;12.01;86.41;98574.25;5063196;28;20044;-78
2024/02/17 02:40:03;;;;;;;;;;;;;;;12.03;86.27;98571.22;5063015;28;20030;-78
2024/02/17 02:42:52;;;;;;;;;;;;;;;12.00;86.18;98577.28;5067553;28;19946;-78
2024/02/17 02:45:40;;;;;;;;;;;;;;;12.01;86.26;98574.25;5070053;28;19928;-78
2024/02/17 02:48:28;;;;;;;;;;;;;;;12.06;86.04;98581.50;5061400;28;19947;-78
2024/02/17 02:51:17;;;;;;;;;;;;;;;12.05;85.89;98574.47;5065227;28;19983;-78
2024/02/17 02:54:05;;;;;;;;;;;;;;;11.99;86.22;98581.13;5066594;28;19931;-78
2024/02/17 02:56:53;;;;;;;;;;;;;;;12.03;85.88;98582.91;5064727;28;19928;-79
2024/02/17 02:59:43;;;;;;;;;;;;;;;11.98;85.94;98602.06;5068537;28;19932;-78
2024/02/17 03:02:57;;;;;;;;;;;;;;;11.98;86.18;98595.81;5074060;28;19978;-78
2024/02/17 03:05:47;;;;;;;;;;;;;;;11.92;86.75;98597.84;5067365;28;19931;-77
2024/02/17 03:08:35;;;;;;;;;;;;;;;11.97;86.40;98595.03;5085515;28;20391;-78
2024/02/17 03:11:24;;;;;;;;;;;;;;;11.96;86.13;98601.59;5065278;28;19931;-78
2024/02/17 03:14:12;;;;;;;;;;;;;;;11.97;85.88;98603.19;5072446;28;19932;-78
2024/02/17 03:17:01;;;;;;;;;;;;;;;11.87;86.60;98605.31;5084352;28;20045;-78
2024/02/17 03:19:51;;;;;;;;;;;;;;;11.89;86.45;98608.56;5072463;28;20443;-78
2024/02/17 03:22:39;;;;;;;;;;;;;;;11.91;86.50;98617.22;5067384;28;19941;-77
2024/02/17 03:25:27;;;;;;;;;;;;;;;11.91;86.18;98614.50;5068226;28;19931;-78
2024/02/17 03:28:15;;;;;;;;;;;;;;;11.87;86.29;98619.72;5071817;28;20052;-78
2024/02/17 03:31:03;;;;;;;;;;;;;;;11.84;86.49;98633.97;5082135;28;19939;-79
2024/02/17 03:33:54;;;;;;;;;;;;;;;11.84;86.15;98638.59;5076066;28;20359;-79
2024/02/17 03:36:43;;;;;;;;;;;;;;;11.83;86.01;98648.69;5072573;28;19932;-79
2024/02/17 03:39:30;;;;;;;;;;;;;;;11.78;86.34;98655.00;5063959;28;19924;-79
2024/02/17 03:42:19;;;;;;;;;;;;;;;11.74;86.10;98661.34;5072082;28;19981;-79
2024/02/17 03:45:07;;;;;;;;;;;;;;;11.66;85.75;98659.31;5062575;28;20277;-79
2024/02/17 03:47:56;;;;;;;;;;;;;;;11.65;85.61;98669.38;5061224;28;19924;-79
2024/02/17 03:50:46;;;;;;;;;;;;;;;11.59;83.77;98677.94;5065239;28;19980;-79
2024/02/17 03:53:35;;;;;;;;;;;;;;;11.44;84.15;98674.38;5067545;28;19928;-79
2024/02/17 03:56:23;;;;;;;;;;;;;;;11.45;83.45;98681.44;5066114;28;19931;-79
2024/02/17 03:59:11;;;;;;;;;;;;;;;11.38;83.39;98691.88;5066683;28;20054;-79
2024/02/17 04:01:59;;;;;;;;;;;;;;;11.23;83.22;98698.38;5064368;28;19924;-79
2024/02/17 04:04:47;;;;;;;;;;;;;;;11.25;82.82;98703.53;5061520;28;19932;-79
2024/02/17 04:07:38;;;;;;;;;;;;;;;11.24;83.03;98707.38;5066126;28;19924;-79
2024/02/17 04:10:28;;;;;;;;;;;;;;;11.19;83.06;98708.25;5061767;28;19925;-79
2024/02/17 04:13:16;;;;;;;;;;;;;;;11.16;82.78;98719.72;5067926;28;19928;-79
2024/02/17 04:16:04;;;;;;;;;;;;;;;11.11;83.21;98714.34;5064015;28;19929;-78
2024/02/17 04:18:52;;;;;;;;;;;;;;;11.08;83.30;98722.28;5076704;28;19924;-78
2024/02/17 04:21:44;;;;;;;;;;;;;;;11.09;83.35;98732.06;5063533;28;20011;-79
2024/02/17 04:24:35;;;;;;;;;;;;;;;11.10;82.86;98739.13;5063090;28;19925;-79
2024/02/17 04:27:23;;;;;;;;;;;;;;;11.04;82.78;98735.69;5070316;28;20364;-79
2024/02/17 04:30:12;;;;;;;;;;;;;;;11.07;82.97;98745.94;5061356;28;19924;-79
2024/02/17 04:33:00;;;;;;;;;;;;;;;10.97;83.48;98752.34;5071223;28;20024;-78
2024/02/17 04:35:51;;;;;;;;;;;;;;;11.02;83.77;98756.88;5064880;28;19932;-79
2024/02/17 04:38:40;;;;;;;;;;;;;;;11.05;83.56;98759.03;5063874;28;20376;-79
2024/02/17 04:41:30;;;;;;;;;;;;;;;11.03;83.40;98763.97;5058899;28;19994;-82
2024/02/17 04:44:18;;;;;;;;;;;;;;;10.98;83.95;98775.72;5058700;28;20337;-82
2024/02/17 04:47:06;;;;;;;;;;;;;;;10.98;84.06;98758.59;5061397;28;20442;-82
2024/02/17 04:49:54;;;;;;;;;;;;;;;10.99;83.88;98761.03;5065802;28;20477;-83
2024/02/17 04:52:42;;;;;;;;;;;;;;;10.99;83.89;98766.47;5061054;28;19925;-82
2024/02/17 04:55:30;;;;;;;;;;;;;;;10.98;83.82;98781.16;5070336;28;20506;-82
2024/02/17 04:58:20;;;;;;;;;;;;;;;10.98;83.74;98783.06;5078504;28;19928;-82
2024/02/17 05:01:08;;;;;;;;;;;;;;;10.98;83.44;98783.88;5068655;28;19933;-82
2024/02/17 05:03:57;;;;;;;;;;;;;;;10.97;83.27;98790.44;5054564;28;20391;-82
2024/02/17 05:06:46;;;;;;;;;;;;;;;10.93;83.47;98800.25;5051686;28;19929;-83
2024/02/17 05:09:35;;;;;;;;;;;;;;;10.93;82.76;98805.69;5077752;28;19990;-82
2024/02/17 05:12:23;;;;;;;;;;;;;;;10.97;82.88;98809.47;5062033;28;20011;-83
2024/02/17 05:15:13;;;;;;;;;;;;;;;10.97;82.24;98809.47;5072897;28;20234;-83
2024/02/17 05:18:01;;;;;;;;;;;;;;;11.10;81.93;98821.50;5079151;28;19925;-81
2024/02/17 05:20:51;;;;;;;;;;;;;;;11.05;81.66;98827.03;5067860;28;20025;-82
2024/02/17 05:23:40;;;;;;;;;;;;;;;11.10;80.97;98826.16;5060710;28;19975;-82
2024/02/17 05:26:33;;;;;;;;;;;;;;;11.11;80.46;98830.47;5067297;28;19925;-83
2024/02/17 05:29:21;;;;;;;;;;;;;;;11.24;79.69;98832.50;5065541;28;19924;-83
2024/02/17 05:32:11;;;;;;;;;;;;;;;11.20;79.49;98843.13;5074341;28;19939;-83
2024/02/17 05:34:59;;;;;;;;;;;;;;;11.20;78.91;98839.63;5071468;28;19924;-81
2024/02/17 05:37:47;;;;;;;;;;;;;;;11.20;79.21;98840.41;5083920;28;19977;-82
2024/02/17 05:40:35;;;;;;;;;;;;;;;11.33;78.36;98846.22;5065502;28;20021;-82
2024/02/17 05:43:23;;;;;;;;;;;;;;;11.28;78.11;98852.53;5084947;28;20496;-82
2024/02/17 05:46:11;;;;;;;;;;;;;;;11.13;78.44;98856.31;5063689;28;19924;-82
2024/02/17 05:49:00;;;;;;;;;;;;;;;11.12;77.90;98862.00;5068461;28;19948;-82
2024/02/17 05:51:49;;;;;;;;;;;;;;;11.24;77.14;98856.97;5065688;28;19925;-79
2024/02/17 05:54:37;;;;;;;;;;;;;;;11.10;77.43;98864.22;5063303;28;19932;-79
2024/02/17 05:57:26;;;;;;;;;;;;;;;10.94;78.24;98869.03;5069355;28;19982;-79
2024/02/17 06:00:14;;;;;;;;;;;;;;;11.12;77.26;98883.75;5074639;28;19931;-78
2024/02/17 06:03:02;;;;;;;;;;;;;;;10.98;77.76;98884.47;5069268;28;19932;-75
2024/02/17 06:05:53;;;;;;;;;;;;;;;11.04;77.18;98892.56;5058958;28;19925;-79
2024/02/17 06:08:42;;;;;;;;;;;;;;;10.89;77.81;98893.56;5062252;28;19925;-79
2024/02/17 06:11:30;;;;;;;;;;;;;;;10.73;78.21;98899.16;5064565;28;19925;-81
2024/02/17 06:14:21;;;;;;;;;;;;;;;10.84;77.94;98909.94;5070413;28;19978;-78
2024/02/17 06:17:10;;;;;;;;;;;;;;;10.74;77.71;98917.06;5079518;28;20405;-86
2024/02/17 06:23:06;;;;;;;;;;;;;;;10.71;77.87;98919.59;5069046;28;19927;-84
2024/02/17 06:25:54;;;;;;;;;;;;;;;10.77;77.45;98936.66;5063960;28;19932;-82
2024/02/17 06:28:42;;;;;;;;;;;;;;;10.73;77.58;98937.22;5068276;28;19924;-82
2024/02/17 06:31:30;;;;;;;;;;;;;;;10.61;78.33;98952.28;5068734;28;19978;-80
2024/02/17 06:34:21;;;;;;;;;;;;;;;10.55;78.35;98953.44;5064065;28;19932;-78
2024/02/17 06:37:09;;;;;;;;;;;;;;;10.48;78.88;98954.56;5078080;28;20007;-86
2024/02/17 06:39:58;;;;;;;;;;;;;;;10.70;78.15;98958.72;5068009;28;19929;-83
2024/02/17 06:42:46;;;;;;;;;;;;;;;10.74;78.24;98965.19;5075365;28;19967;-82
2024/02/17 06:45:36;;;;;;;;;;;;;;;10.74;78.24;98965.19;5088485;28;19924;-84
2024/02/17 06:48:27;;;;;;;;;;;;;;;10.66;78.75;98974.78;5069810;28;19931;-85
2024/02/17 06:51:15;;;;;;;;;;;;;;;10.92;78.02;98980.81;5071819;28;20384;-86
2024/02/17 06:54:03;;;;;;;;;;;;;;;10.97;78.00;98985.34;5078400;28;20299;-83
2024/02/17 06:56:52;;;;;;;;;;;;;;;10.98;77.74;98987.00;5084704;28;20449;-85
2024/02/17 06:59:41;;;;;;;;;;;;;;;11.03;78.15;99000.53;5064822;28;19931;-86
2024/02/17 07:02:30;;;;;;;;;;;;;;;11.01;78.90;98998.09;5063950;28;20285;-86
2024/02/17 07:05:18;;;;;;;;;;;;;;;11.08;78.41;99005.09;5063410;28;20015;-82
2024/02/17 07:08:07;;;;;;;;;;;;;;;10.99;78.78;99013.91;5075881;28;19924;-81
2024/02/17 07:10:56;;;;;;;;;;;;;;;10.99;79.22;99013.91;5073089;28;19924;-82
2024/02/17 07:13:46;;;;;;;;;;;;;;;11.08;79.07;99027.69;5074908;28;19924;-82
2024/02/17 07:16:35;;;;;;;;;;;;;;;11.23;78.42;99026.69;5072371;28;20085;-82
2024/02/17 07:19:23;;;;;;;;;;;;;;;11.11;79.08;99039.88;5065760;28;20371;-83
2024/02/17 07:22:11;;;;;;;;;;;;;;;11.16;78.89;99042.56;5079455;28;19924;-82
2024/02/17 07:24:59;;;;;;;;;;;;;;;11.14;78.90;99048.28;5067169;28;19928;-83
2024/02/17 07:27:48;;;;;;;;;;;;;;;11.32;78.33;99049.47;5075381;28;19937;-83
2024/02/17 07:30:41;;;;;;;;;;;;;;;11.18;79.04;99052.03;5072933;28;19925;-83
2024/02/17 07:33:31;;;;;;;;;;;;;;;11.15;78.71;99063.50;5068844;28;19924;-83
2024/02/17 07:36:19;;;;;;;;;;;;;;;11.24;78.26;99063.72;5076313;28;19924;-84
2024/02/17 07:39:08;;;;;;;;;;;;;;;11.28;78.02;99070.16;5078833;28;20304;-83
2024/02/17 07:41:56;;;;;;;;;;;;;;;11.22;78.43;99082.22;5068070;28;19924;-83
2024/02/17 07:44:46;;;;;;;;;;;;;;;11.30;78.51;99086.22;5072434;28;19934;-83
2024/02/17 07:47:35;;;;;;;;;;;;;;;11.28;78.59;99090.03;5088320;28;19928;-81
2024/02/17 07:50:23;;;;;;;;;;;;;;;11.18;79.04;99097.47;5079108;28;19932;-82
2024/02/17 07:53:12;;;;;;;;;;;;;;;11.14;78.90;99099.16;5068321;28;19925;-83
2024/02/17 07:56:00;;;;;;;;;;;;;;;11.36;78.51;99102.22;5068241;28;19925;-83
2024/02/17 07:58:47;;;;;;;;;;;;;;;11.42;78.29;99102.97;5071746;28;19936;-82
2024/02/17 08:01:36;;;;;;;;;;;;;;;11.41;77.64;99113.03;5070332;28;19931;-81
2024/02/17 08:04:25;;;;;;;;;;;;;;;11.39;77.39;99117.94;5071594;28;19947;-81
2024/02/17 08:07:15;;;;;;;;;;;;;;;11.32;77.51;99119.38;5071918;28;19931;-82
2024/02/17 08:10:06;;;;;;;;;;;;;;;11.41;77.18;99118.47;5076241;28;19931;-80
2024/02/17 08:12:54;;;;;;;;;;;;;;;11.37;77.31;99122.88;5083708;28;19924;-79
2024/02/17 08:15:42;;;;;;;;;;;;;;;11.27;77.82;99126.50;5073406;28;19986;-80
2024/02/17 08:18:31;;;;;;;;;;;;;;;11.38;77.08;99129.94;5073777;28;19925;-80
2024/02/17 08:21:21;;;;;;;;;;;;;;;11.38;76.74;99135.38;5073519;28;19935;-80
2024/02/17 08:24:09;;;;;;;;;;;;;;;11.39;77.00;99139.72;5055051;28;19981;-79
2024/02/17 08:26:57;;;;;;;;;;;;;;;11.40;76.45;99141.34;5062329;28;20292;-79
2024/02/17 08:29:46;;;;;;;;;;;;;;;11.41;76.45;99142.16;5065933;28;19928;-79
2024/02/17 08:32:34;;;;;;;;;;;;;;;11.33;76.01;99146.31;5067312;28;20307;-80
2024/02/17 08:35:22;;;;;;;;;;;;;;;11.26;75.76;99152.09;5064988;28;20304;-79
2024/02/17 08:38:12;;;;;;;;;;;;;;;11.16;76.43;99151.34;5069912;28;20142;-79
2024/02/17 08:41:02;;;;;;;;;;;;;;;11.24;75.79;99159.72;5065255;28;20012;-79
2024/02/17 08:43:50;;;;;;;;;;;;;;;11.28;76.14;99166.19;5079101;28;20423;-79
2024/02/17 08:46:39;;;;;;;;;;;;;;;11.29;75.76;99180.59;5062479;28;19929;-81
2024/02/17 08:49:27;;;;;;;;;;;;;;;11.38;75.97;99176.19;5067180;28;19925;-83
2024/02/17 08:52:15;;;;;;;;;;;;;;;11.44;75.80;99185.94;5066497;28;19932;-80
2024/02/17 08:55:04;;;;;;;;;;;;;;;11.50;76.05;99187.53;5074499;28;20025;-81
2024/02/17 08:57:53;;;;;;;;;;;;;;;11.38;75.02;99192.50;5070309;28;19928;-80
2024/02/17 09:00:42;;;;;;;;;;;;;;;11.47;75.52;99188.09;5065361;28;19947;-80
2024/02/17 09:03:30;;;;;;;;;;;;;;;11.45;75.96;99195.75;5077827;28;19924;-79
2024/02/17 09:06:20;;;;;;;;;;;;;;;11.59;74.94;99179.53;5068040;28;19924;-81
2024/02/17 09:09:08;;;;;;;;;;;;;;;11.48;74.30;99183.44;5080354;28;19946;-90
2024/02/17 09:11:58;;;;;;;;;;;;;;;11.50;73.98;99192.13;5067901;28;20022;-88
2024/02/17 09:14:46;;;;;;;;;;;;;;;11.58;73.73;99196.97;5067868;28;19929;-79
2024/02/17 09:17:34;;;;;;;;;;;;;;;11.54;73.69;99196.72;5065925;28;19999;-83
2024/02/17 09:20:23;;;;;;;;;;;;;;;11.59;72.20;99192.34;5066358;28;19931;-79
2024/02/17 09:23:11;;;;;;;;;;;;;;;11.67;71.66;99202.63;5068210;28;19935;-77
2024/02/17 09:25:59;;;;;;;;;;;;;;;11.58;71.64;99207.06;5065739;28;19925;-78
2024/02/17 09:28:49;;;;;;;;;;;;;;;11.63;70.44;99209.72;5062394;28;19925;-78
2024/02/17 09:31:37;;;;;;;;;;;;;;;11.54;69.76;99215.78;5078255;28;19932;-78
2024/02/17 09:34:26;;;;;;;;;;;;;;;11.46;69.93;99221.84;5066030;28;20464;-78
2024/02/17 09:37:14;;;;;;;;;;;;;;;11.64;69.88;99227.69;5070736;28;19924;-78
2024/02/17 09:40:02;;;;;;;;;;;;;;;11.67;70.01;99235.28;5069044;28;20007;-78
2024/02/17 09:42:50;;;;;;;;;;;;;;;11.77;70.43;99232.44;5067543;28;19929;-78
2024/02/17 09:45:40;;;;;;;;;;;;;;;11.81;69.26;99233.50;5068884;28;20394;-78
2024/02/17 09:48:28;;;;;;;;;;;;;;;11.76;69.12;99236.28;5065170;28;19928;-78
2024/02/17 09:51:17;;;;;;;;;;;;;;;11.85;69.53;99234.59;5065679;28;19998;-78
2024/02/17 09:54:06;;;;;;;;;;;;;;;11.92;68.99;99240.50;5079011;28;19940;-78
2024/02/17 09:56:54;;;;;;;;;;;;;;;12.12;68.83;99255.03;5063293;28;19924;-78
2024/02/17 09:59:42;;;;;;;;;;;;;;;12.19;67.98;99244.59;5070777;28;19972;-78
2024/02/17 10:02:32;;;;;;;;;;;;;;;12.20;68.47;99257.94;5074274;28;19928;-78
2024/02/17 10:05:21;;;;;;;;;;;;;;;12.31;67.67;99264.91;5057034;28;20418;-79
2024/02/17 10:08:10;;;;;;;;;;;;;;;12.15;68.07;99268.09;5065363;28;19928;-78
2024/02/17 10:10:58;;;;;;;;;;;;;;;12.06;67.73;99274.13;5084583;28;19931;-78
2024/02/17 10:13:49;;;;;;;;;;;;;;;12.13;67.95;99273.78;5064708;28;19964;-78
2024/02/17 10:16:38;;;;;;;;;;;;;;;12.10;68.23;99287.19;5064833;28;19994;-78
2024/02/17 10:19:28;;;;;;;;;;;;;;;12.23;67.03;99290.03;5085362;28;20422;-78
2024/02/17 10:22:16;;;;;;;;;;;;;;;12.26;67.04;99294.13;5057919;28;20011;-78
2024/02/17 10:25:04;;;;;;;;;;;;;;;12.31;67.46;99303.06;5069072;28;20011;-77
2024/02/17 10:27:53;;;;;;;;;;;;;;;12.28;66.62;99294.63;5076082;28;20359;-78
2024/02/17 10:30:41;;;;;;;;;;;;;;;12.15;66.74;99292.59;5088105;28;19924;-78
2024/02/17 10:33:30;;;;;;;;;;;;;;;12.05;67.05;99294.31;5074107;28;19927;-78
2024/02/17 10:36:19;;;;;;;;;;;;;;;12.05;67.66;99294.31;5070704;28;19928;-78
2024/02/17 10:39:11;;;;;;;;;;;;;;;12.06;67.88;99303.28;5064198;28;19931;-78
2024/02/17 10:41:59;;;;;;;;;;;;;;;12.16;67.43;99289.56;5071658;28;19932;-77
2024/02/17 10:44:47;;;;;;;;;;;;;;;12.33;66.70;99305.47;5070359;28;19964;-78
2024/02/17 10:47:36;;;;;;;;;;;;;;;12.46;65.97;99304.78;5067381;28;19932;-77
2024/02/17 10:50:26;;;;;;;;;;;;;;;12.49;65.91;99304.22;5070064;28;19969;-78
2024/02/17 10:53:17;;;;;;;;;;;;;;;12.62;63.36;99307.34;5064577;28;20384;-77
2024/02/17 10:56:05;;;;;;;;;;;;;;;12.52;61.91;99308.28;5078947;28;19924;-77
2024/02/17 10:58:54;;;;;;;;;;;;;;;12.54;62.50;99306.06;5083030;28;20009;-77
2024/02/17 11:01:43;;;;;;;;;;;;;;;12.58;62.32;99307.94;5076662;28;19977;-78
2024/02/17 11:04:31;;;;;;;;;;;;;;;12.58;62.86;99309.84;5085164;28;20260;-78
2024/02/17 11:07:20;;;;;;;;;;;;;;;12.63;63.16;99309.78;5090398;28;20502;-77
2024/02/17 11:10:10;;;;;;;;;;;;;;;12.51;63.26;99304.72;5063154;28;19967;-78
2024/02/17 11:13:01;;;;;;;;;;;;;;;12.59;64.01;99306.81;5085705;28;22167;-77
2024/02/17 11:15:57;;;;;;;;;;;;;;;12.53;63.52;99310.72;5082653;28;19928;-77
2024/02/17 11:18:46;;;;;;;;;;;;;;;12.53;63.28;99316.16;5078271;28;19924;-77
2024/02/17 11:21:36;;;;;;;;;;;;;;;12.57;62.17;99319.13;5071087;28;20296;-78
2024/02/17 11:24:25;;;;;;;;;;;;;;;12.58;62.43;99316.09;5075949;28;20021;-78
2024/02/17 11:27:14;;;;;;;;;;;;;;;12.54;62.22;99320.50;5065347;28;19928;-77
2024/02/17 11:30:03;;;;;;;;;;;;;;;12.54;61.01;99314.25;5070580;28;20434;-77
2024/02/17 11:32:58;;;;;;;;;;;;;;;12.51;60.79;99310.16;5069145;28;19925;-78
2024/02/17 11:35:47;;;;;;;;;;;;;;;12.53;61.00;99316.16;5081746;28;19931;-77
2024/02/17 11:38:36;;;;;;;;;;;;;;;12.48;61.01;99312.69;5065872;28;19954;-78
2024/02/17 11:41:24;;;;;;;;;;;;;;;12.51;60.53;99318.34;5073006;28;19925;-86
2024/02/17 11:44:13;;;;;;;;;;;;;;;12.57;60.35;99314.50;5086318;28;19932;-88
2024/02/17 11:47:01;;;;;;;;;;;;;;;12.71;60.31;99322.78;5073593;28;19993;-87
2024/02/17 11:49:50;;;;;;;;;;;;;;;12.76;60.10;99324.63;5097038;28;19932;-87
2024/02/17 11:52:40;;;;;;;;;;;;;;;12.82;58.99;99315.28;5068499;28;20022;-86
2024/02/17 11:55:28;;;;;;;;;;;;;;;12.82;59.28;99307.09;5079999;28;20102;-87
2024/02/17 11:58:17;;;;;;;;;;;;;;;12.84;59.26;99315.81;5075377;28;19977;-87
2024/02/17 12:01:08;;;;;;;;;;;;;;;12.93;58.17;99310.50;5075625;28;19925;-87
2024/02/17 12:03:57;;;;;;;;;;;;;;;12.98;58.16;99302.25;5075754;28;20067;-87
2024/02/17 12:06:47;;;;;;;;;;;;;;;12.98;57.50;99304.97;5072881;28;20085;-86
2024/02/17 12:09:36;;;;;;;;;;;;;;;12.93;56.80;99303.13;5069903;28;19932;-86
2024/02/17 12:12:25;;;;;;;;;;;;;;;12.90;57.92;99308.38;5078617;28;19924;-87
2024/02/17 12:15:14;;;;;;;;;;;;;;;12.89;55.65;99307.56;5077584;28;19928;-87
2024/02/17 12:18:04;;;;;;;;;;;;;;;12.87;55.21;99315.22;5064268;28;19928;-86
2024/02/17 12:20:53;;;;;;;;;;;;;;;12.90;54.57;99311.09;5097861;28;20051;-87
2024/02/17 12:23:42;;;;;;;;;;;;;;;12.80;55.33;99317.50;5071317;28;19932;-88
2024/02/17 12:26:31;;;;;;;;;;;;;;;12.76;54.81;99313.72;5073319;28;19931;-87
2024/02/17 12:29:29;;;;;;;;;;;;;;;12.74;53.12;99321.38;5064718;28;19925;-87
2024/02/17 12:32:21;;;;;;;;;;;;;;;12.67;53.69;99326.38;5063446;28;19928;-87
2024/02/17 12:35:11;;;;;;;;;;;;;;;12.70;54.63;99328.53;5058197;28;19980;-87
2024/02/17 12:38:00;;;;;;;;;;;;;;;12.67;55.93;99326.38;5095986;28;19947;-86
2024/02/17 12:40:48;;;;;;;;;;;;;;;12.74;57.12;99332.31;5077105;28;19920;-87
2024/02/17 12:43:37;;;;;;;;;;;;;;;12.83;57.47;99341.44;5092672;28;19928;-87
2024/02/17 12:46:32;;;;;;;;;;;;;;;12.84;57.23;99337.63;5055070;28;20041;-87
2024/02/17 12:49:22;;;;;;;;;;;;;;;12.95;58.21;99341.03;5074328;28;19924;-87
2024/02/17 12:52:12;;;;;;;;;;;;;;;13.00;58.04;99341.00;5067705;28;19986;-78
2024/02/17 12:55:04;;;;;;;;;;;;;;;12.94;57.05;99344.84;5069806;28;19967;-78
2024/02/17 12:57:52;;;;;;;;;;;;;;;12.91;57.33;99338.09;5074589;28;20008;-78
2024/02/17 13:00:41;;;;;;;;;;;;;;;12.99;57.55;99347.53;5074399;28;19936;-77
2024/02/17 13:03:29;;;;;;;;;;;;;;;12.95;56.62;99338.31;5053954;28;19991;-78
2024/02/17 13:06:18;;;;;;;;;;;;;;;12.94;56.92;99344.84;5068718;28;19924;-78
2024/02/17 13:09:08;;;;;;;;;;;;;;;12.88;57.01;99346.84;5088450;28;19924;-78
2024/02/17 13:11:56;;;;;;;;;;;;;;;12.86;56.83;99343.59;5060210;28;20099;-77
2024/02/17 13:14:45;;;;;;;;;;;;;;;12.87;57.11;99342.50;5062629;28;19979;-78
2024/02/17 13:17:36;;;;;;;;;;;;;;;12.91;56.33;99350.91;5071379;28;19932;-78
2024/02/17 13:20:24;;;;;;;;;;;;;;;12.91;57.01;99351.72;5077040;28;19925;-78
2024/02/17 13:23:12;;;;;;;;;;;;;;;12.95;56.44;99352.78;5080659;28;19954;-78
2024/02/17 13:26:01;;;;;;;;;;;;;;;12.91;56.50;99359.91;5077663;28;20003;-78
2024/02/17 13:28:49;;;;;;;;;;;;;;;12.82;56.94;99357.00;5067193;28;20290;-78
2024/02/17 13:31:38;;;;;;;;;;;;;;;12.85;57.79;99352.88;5067559;28;19932;-78
2024/02/17 13:34:26;;;;;;;;;;;;;;;13.02;58.14;99355.94;5063630;28;20280;-78
2024/02/17 13:37:15;;;;;;;;;;;;;;;13.02;57.51;99364.13;5091707;28;20082;-78
2024/02/17 13:40:04;;;;;;;;;;;;;;;12.97;56.79;99356.00;5074612;28;19924;-77
2024/02/17 13:42:54;;;;;;;;;;;;;;;12.99;56.52;99356.50;5065419;28;20117;-78
2024/02/17 13:45:45;;;;;;;;;;;;;;;12.98;56.42;99360.34;5065768;28;20128;-78
2024/02/17 13:48:34;;;;;;;;;;;;;;;12.99;55.89;99355.72;5075876;28;19925;-78
2024/02/17 13:51:22;;;;;;;;;;;;;;;12.98;55.76;99359.53;5079363;28;20018;-77
2024/02/17 13:54:11;;;;;;;;;;;;;;;12.94;55.19;99369.41;5078295;28;19973;-77
2024/02/17 13:57:03;;;;;;;;;;;;;;;13.00;55.45;99371.81;5068818;28;19925;-78
2024/02/17 13:59:53;;;;;;;;;;;;;;;12.95;55.47;99371.88;5067434;28;19970;-87
2024/02/17 14:02:41;;;;;;;;;;;;;;;12.99;55.81;99367.44;5065819;28;20761;-87
2024/02/17 14:05:29;;;;;;;;;;;;;;;13.02;55.95;99375.03;5064905;28;20281;-84
